sensor_id;sensor_type;location;lat;lon;timestamp;P1;durP1;ratioP1;P2;durP2;ratioP2
60233;SDS011;49514;43.538;-5.708;2023-03-31T00:02:12;54.45;;;32.05;;
60233;SDS011;49514;43.538;-5.708;2023-03-31T00:04:39;58.08;;;31.15;;
60233;SDS011;49514;43.538;-5.708;2023-03-31T00:07:12;51.05;;;29.83;;
60233;SDS011;49514;43.538;-5.708;2023-03-31T00:09:41;50.53;;;31.50;;
60233;SDS011;49514;43.538;-5.708;2023-03-31T00:12:11;52.33;;;29.70;;
60233;SDS011;49514;43.538;-5.708;2023-03-31T00:14:39;40.45;;;25.25;;
60233;SDS011;49514;43.538;-5.708;2023-03-31T00:17:07;41.03;;;23.45;;
60233;SDS011;49514;43.538;-5.708;2023-03-31T00:19:34;40.35;;;24.60;;
60233;SDS011;49514;43.538;-5.708;2023-03-31T00:22:02;40.80;;;24.17;;
60233;SDS011;49514;43.538;-5.708;2023-03-31T00:24:31;41.83;;;23.88;;
60233;SDS011;49514;43.538;-5.708;2023-03-31T00:26:59;42.15;;;23.90;;
60233;SDS011;49514;43.538;-5.708;2023-03-31T00:29:27;37.95;;;21.70;;
60233;SDS011;49514;43.538;-5.708;2023-03-31T00:31:55;36.17;;;19.60;;
60233;SDS011;49514;43.538;-5.708;2023-03-31T00:34:21;35.85;;;20.05;;
60233;SDS011;49514;43.538;-5.708;2023-03-31T00:36:48;33.42;;;19.20;;
60233;SDS011;49514;43.538;-5.708;2023-03-31T00:39:16;35.30;;;18.73;;
60233;SDS011;49514;43.538;-5.708;2023-03-31T00:41:44;34.92;;;18.60;;
60233;SDS011;49514;43.538;-5.708;2023-03-31T00:49:25;37.15;;;18.63;;
60233;SDS011;49514;43.538;-5.708;2023-03-31T00:52:09;43.83;;;19.80;;
60233;SDS011;49514;43.538;-5.708;2023-03-31T00:55:01;39.05;;;20.15;;
60233;SDS011;49514;43.538;-5.708;2023-03-31T00:57:35;43.60;;;22.58;;
60233;SDS011;49514;43.538;-5.708;2023-03-31T01:00:07;44.03;;;23.35;;
60233;SDS011;49514;43.538;-5.708;2023-03-31T01:02:44;48.03;;;24.80;;
60233;SDS011;49514;43.538;-5.708;2023-03-31T01:05:25;46.42;;;23.88;;
60233;SDS011;49514;43.538;-5.708;2023-03-31T01:07:55;53.72;;;23.83;;
60233;SDS011;49514;43.538;-5.708;2023-03-31T01:10:24;48.67;;;22.98;;
60233;SDS011;49514;43.538;-5.708;2023-03-31T01:12:52;43.13;;;22.05;;
60233;SDS011;49514;43.538;-5.708;2023-03-31T01:15:21;48.97;;;21.90;;
60233;SDS011;49514;43.538;-5.708;2023-03-31T01:17:47;43.75;;;21.83;;
60233;SDS011;49514;43.538;-5.708;2023-03-31T01:23:30;21.90;;;10.75;;
60233;SDS011;49514;43.538;-5.708;2023-03-31T12:58:41;11.05;;;2.88;;
60233;SDS011;49514;43.538;-5.708;2023-03-31T13:48:32;16.10;;;3.92;;
60233;SDS011;49514;43.538;-5.708;2023-03-31T13:51:16;18.90;;;3.42;;
60233;SDS011;49514;43.538;-5.708;2023-03-31T14:14:56;24.92;;;5.15;;
60233;SDS011;49514;43.538;-5.708;2023-03-31T14:17:25;23.20;;;5.40;;
60233;SDS011;49514;43.538;-5.708;2023-03-31T14:26:11;18.98;;;4.72;;
60233;SDS011;49514;43.538;-5.708;2023-03-31T14:37:02;21.40;;;4.65;;
60233;SDS011;49514;43.538;-5.708;2023-03-31T14:39:31;22.42;;;5.00;;
60233;SDS011;49514;43.538;-5.708;2023-03-31T14:42:09;22.17;;;5.10;;
60233;SDS011;49514;43.538;-5.708;2023-03-31T14:44:41;18.55;;;4.25;;
60233;SDS011;49514;43.538;-5.708;2023-03-31T14:47:14;24.65;;;5.20;;
60233;SDS011;49514;43.538;-5.708;2023-03-31T14:50:02;19.67;;;4.90;;
60233;SDS011;49514;43.538;-5.708;2023-03-31T14:55:00;18.80;;;4.70;;
60233;SDS011;49514;43.538;-5.708;2023-03-31T14:57:37;24.50;;;4.90;;
60233;SDS011;49514;43.538;-5.708;2023-03-31T16:13:58;25.63;;;4.38;;
60233;SDS011;49514;43.538;-5.708;2023-03-31T16:16:28;33.70;;;5.57;;
60233;SDS011;49514;43.538;-5.708;2023-03-31T16:19:02;26.25;;;5.50;;
60233;SDS011;49514;43.538;-5.708;2023-03-31T16:21:40;30.00;;;5.68;;
60233;SDS011;49514;43.538;-5.708;2023-03-31T16:26:39;27.80;;;5.13;;
60233;SDS011;49514;43.538;-5.708;2023-03-31T16:29:06;23.75;;;5.45;;
60233;SDS011;49514;43.538;-5.708;2023-03-31T16:31:34;24.13;;;4.90;;
60233;SDS011;49514;43.538;-5.708;2023-03-31T16:34:04;25.98;;;5.53;;
60233;SDS011;49514;43.538;-5.708;2023-03-31T16:36:32;32.72;;;6.15;;
60233;SDS011;49514;43.538;-5.708;2023-03-31T16:38:59;27.08;;;5.35;;
60233;SDS011;49514;43.538;-5.708;2023-03-31T16:41:33;23.67;;;5.18;;
60233;SDS011;49514;43.538;-5.708;2023-03-31T16:44:01;22.35;;;4.38;;
60233;SDS011;49514;43.538;-5.708;2023-03-31T16:46:29;29.60;;;4.85;;
60233;SDS011;49514;43.538;-5.708;2023-03-31T16:48:56;26.63;;;5.32;;
60233;SDS011;49514;43.538;-5.708;2023-03-31T16:51:22;31.92;;;5.70;;
60233;SDS011;49514;43.538;-5.708;2023-03-31T16:53:49;33.95;;;6.57;;
60233;SDS011;49514;43.538;-5.708;2023-03-31T16:56:16;21.00;;;4.72;;
60233;SDS011;49514;43.538;-5.708;2023-03-31T16:58:43;36.30;;;6.40;;
60233;SDS011;49514;43.538;-5.708;2023-03-31T17:01:30;31.80;;;5.60;;
60233;SDS011;49514;43.538;-5.708;2023-03-31T17:03:57;36.10;;;5.88;;
60233;SDS011;49514;43.538;-5.708;2023-03-31T17:06:23;35.72;;;5.80;;
60233;SDS011;49514;43.538;-5.708;2023-03-31T17:08:50;35.63;;;5.80;;
60233;SDS011;49514;43.538;-5.708;2023-03-31T17:11:17;32.63;;;6.20;;
60233;SDS011;49514;43.538;-5.708;2023-03-31T17:13:43;29.83;;;5.35;;
60233;SDS011;49514;43.538;-5.708;2023-03-31T17:16:11;24.67;;;4.38;;
60233;SDS011;49514;43.538;-5.708;2023-03-31T17:18:38;43.00;;;7.28;;
60233;SDS011;49514;43.538;-5.708;2023-03-31T17:21:08;25.80;;;5.60;;
60233;SDS011;49514;43.538;-5.708;2023-03-31T17:23:37;28.08;;;5.00;;
60233;SDS011;49514;43.538;-5.708;2023-03-31T17:26:04;40.22;;;7.07;;
60233;SDS011;49514;43.538;-5.708;2023-03-31T17:28:34;24.90;;;5.18;;
60233;SDS011;49514;43.538;-5.708;2023-03-31T17:31:09;34.67;;;6.07;;
60233;SDS011;49514;43.538;-5.708;2023-03-31T17:33:43;33.90;;;5.65;;
60233;SDS011;49514;43.538;-5.708;2023-03-31T17:36:10;38.47;;;7.15;;
60233;SDS011;49514;43.538;-5.708;2023-03-31T17:38:37;35.35;;;5.35;;
60233;SDS011;49514;43.538;-5.708;2023-03-31T17:41:05;32.17;;;5.78;;
60233;SDS011;49514;43.538;-5.708;2023-03-31T17:43:33;29.83;;;5.50;;
60233;SDS011;49514;43.538;-5.708;2023-03-31T17:46:00;33.20;;;5.72;;
60233;SDS011;49514;43.538;-5.708;2023-03-31T17:48:31;42.00;;;6.75;;
60233;SDS011;49514;43.538;-5.708;2023-03-31T17:51:09;32.80;;;5.38;;
60233;SDS011;49514;43.538;-5.708;2023-03-31T17:53:41;31.65;;;5.80;;
60233;SDS011;49514;43.538;-5.708;2023-03-31T17:56:10;30.35;;;5.78;;
60233;SDS011;49514;43.538;-5.708;2023-03-31T17:58:38;44.63;;;6.75;;
60233;SDS011;49514;43.538;-5.708;2023-03-31T18:01:05;37.20;;;6.28;;
60233;SDS011;49514;43.538;-5.708;2023-03-31T18:03:33;25.33;;;5.20;;
60233;SDS011;49514;43.538;-5.708;2023-03-31T18:06:07;39.05;;;6.47;;
60233;SDS011;49514;43.538;-5.708;2023-03-31T18:08:36;32.80;;;5.70;;
60233;SDS011;49514;43.538;-5.708;2023-03-31T18:11:04;36.90;;;6.20;;
60233;SDS011;49514;43.538;-5.708;2023-03-31T18:13:34;45.67;;;7.15;;
60233;SDS011;49514;43.538;-5.708;2023-03-31T18:16:02;34.65;;;5.65;;
60233;SDS011;49514;43.538;-5.708;2023-03-31T18:18:30;33.13;;;5.22;;
60233;SDS011;49514;43.538;-5.708;2023-03-31T18:21:01;36.97;;;5.95;;
60233;SDS011;49514;43.538;-5.708;2023-03-31T18:23:29;42.42;;;6.35;;
60233;SDS011;49514;43.538;-5.708;2023-03-31T18:25:57;33.55;;;5.22;;
60233;SDS011;49514;43.538;-5.708;2023-03-31T18:28:23;51.83;;;6.95;;
60233;SDS011;49514;43.538;-5.708;2023-03-31T18:30:50;39.08;;;6.35;;
60233;SDS011;49514;43.538;-5.708;2023-03-31T18:33:18;31.10;;;5.70;;
60233;SDS011;49514;43.538;-5.708;2023-03-31T18:35:47;36.05;;;6.05;;
60233;SDS011;49514;43.538;-5.708;2023-03-31T18:38:15;36.15;;;5.70;;
60233;SDS011;49514;43.538;-5.708;2023-03-31T18:40:49;36.60;;;4.95;;
60233;SDS011;49514;43.538;-5.708;2023-03-31T18:43:18;43.30;;;6.00;;
60233;SDS011;49514;43.538;-5.708;2023-03-31T18:45:50;33.92;;;5.45;;
60233;SDS011;49514;43.538;-5.708;2023-03-31T18:48:19;40.75;;;5.25;;
60233;SDS011;49514;43.538;-5.708;2023-03-31T18:50:47;35.33;;;5.35;;
60233;SDS011;49514;43.538;-5.708;2023-03-31T18:53:16;40.25;;;5.57;;
60233;SDS011;49514;43.538;-5.708;2023-03-31T18:55:47;44.15;;;6.10;;
60233;SDS011;49514;43.538;-5.708;2023-03-31T18:58:19;35.92;;;4.75;;
60233;SDS011;49514;43.538;-5.708;2023-03-31T19:00:46;31.70;;;5.60;;
60233;SDS011;49514;43.538;-5.708;2023-03-31T19:03:13;26.33;;;4.32;;
60233;SDS011;49514;43.538;-5.708;2023-03-31T19:05:40;31.55;;;5.60;;
60233;SDS011;49514;43.538;-5.708;2023-03-31T19:08:07;29.83;;;4.85;;
60233;SDS011;49514;43.538;-5.708;2023-03-31T19:10:34;35.35;;;5.35;;
60233;SDS011;49514;43.538;-5.708;2023-03-31T19:13:02;35.20;;;5.45;;
60233;SDS011;49514;43.538;-5.708;2023-03-31T19:15:29;31.50;;;5.38;;
60233;SDS011;49514;43.538;-5.708;2023-03-31T19:17:55;30.23;;;4.68;;
60233;SDS011;49514;43.538;-5.708;2023-03-31T19:20:22;34.17;;;5.72;;
60233;SDS011;49514;43.538;-5.708;2023-03-31T19:22:49;41.03;;;5.75;;
60233;SDS011;49514;43.538;-5.708;2023-03-31T19:25:17;31.63;;;4.82;;
60233;SDS011;49514;43.538;-5.708;2023-03-31T19:27:45;31.20;;;5.13;;
60233;SDS011;49514;43.538;-5.708;2023-03-31T19:30:14;49.40;;;6.40;;
60233;SDS011;49514;43.538;-5.708;2023-03-31T19:32:44;33.63;;;5.30;;
60233;SDS011;49514;43.538;-5.708;2023-03-31T19:35:14;31.58;;;5.93;;
60233;SDS011;49514;43.538;-5.708;2023-03-31T19:37:43;38.22;;;5.25;;
60233;SDS011;49514;43.538;-5.708;2023-03-31T19:40:10;33.92;;;5.72;;
60233;SDS011;49514;43.538;-5.708;2023-03-31T19:42:38;38.00;;;5.65;;
60233;SDS011;49514;43.538;-5.708;2023-03-31T19:45:07;29.88;;;4.43;;
60233;SDS011;49514;43.538;-5.708;2023-03-31T19:47:34;46.03;;;5.95;;
60233;SDS011;49514;43.538;-5.708;2023-03-31T19:50:01;32.28;;;5.38;;
60233;SDS011;49514;43.538;-5.708;2023-03-31T19:52:28;37.25;;;5.90;;
60233;SDS011;49514;43.538;-5.708;2023-03-31T19:54:55;30.42;;;5.15;;
60233;SDS011;49514;43.538;-5.708;2023-03-31T19:57:22;40.72;;;7.10;;
60233;SDS011;49514;43.538;-5.708;2023-03-31T19:59:49;40.40;;;7.15;;
60233;SDS011;49514;43.538;-5.708;2023-03-31T20:02:16;40.17;;;6.90;;
60233;SDS011;49514;43.538;-5.708;2023-03-31T20:04:43;39.92;;;7.93;;
60233;SDS011;49514;43.538;-5.708;2023-03-31T20:07:10;37.95;;;7.05;;
60233;SDS011;49514;43.538;-5.708;2023-03-31T20:09:36;42.67;;;8.10;;
60233;SDS011;49514;43.538;-5.708;2023-03-31T20:12:04;48.10;;;8.53;;
60233;SDS011;49514;43.538;-5.708;2023-03-31T20:14:31;34.00;;;6.53;;
60233;SDS011;49514;43.538;-5.708;2023-03-31T20:17:00;39.10;;;7.88;;
60233;SDS011;49514;43.538;-5.708;2023-03-31T20:19:28;36.20;;;7.50;;
60233;SDS011;49514;43.538;-5.708;2023-03-31T20:21:55;38.50;;;7.67;;
60233;SDS011;49514;43.538;-5.708;2023-03-31T20:24:23;37.70;;;7.55;;
60233;SDS011;49514;43.538;-5.708;2023-03-31T20:26:50;32.00;;;6.47;;
60233;SDS011;49514;43.538;-5.708;2023-03-31T20:29:17;40.33;;;7.20;;
60233;SDS011;49514;43.538;-5.708;2023-03-31T20:31:44;37.47;;;6.93;;
60233;SDS011;49514;43.538;-5.708;2023-03-31T20:34:12;31.95;;;6.68;;
60233;SDS011;49514;43.538;-5.708;2023-03-31T20:36:42;36.65;;;6.75;;
60233;SDS011;49514;43.538;-5.708;2023-03-31T20:39:14;33.53;;;7.07;;
60233;SDS011;49514;43.538;-5.708;2023-03-31T20:41:41;34.00;;;6.15;;
60233;SDS011;49514;43.538;-5.708;2023-03-31T20:44:09;34.53;;;6.55;;
60233;SDS011;49514;43.538;-5.708;2023-03-31T20:46:38;30.23;;;6.20;;
60233;SDS011;49514;43.538;-5.708;2023-03-31T20:49:05;33.30;;;6.30;;
60233;SDS011;49514;43.538;-5.708;2023-03-31T20:51:33;35.45;;;6.65;;
60233;SDS011;49514;43.538;-5.708;2023-03-31T20:54:02;33.75;;;6.90;;
60233;SDS011;49514;43.538;-5.708;2023-03-31T20:56:31;30.73;;;5.70;;
60233;SDS011;49514;43.538;-5.708;2023-03-31T20:59:00;37.33;;;6.45;;
60233;SDS011;49514;43.538;-5.708;2023-03-31T21:01:29;36.25;;;6.95;;
60233;SDS011;49514;43.538;-5.708;2023-03-31T21:03:59;38.80;;;6.70;;
60233;SDS011;49514;43.538;-5.708;2023-03-31T21:06:27;38.03;;;7.03;;
60233;SDS011;49514;43.538;-5.708;2023-03-31T21:08:57;37.37;;;7.10;;
60233;SDS011;49514;43.538;-5.708;2023-03-31T21:11:25;32.80;;;5.90;;
60233;SDS011;49514;43.538;-5.708;2023-03-31T21:13:52;29.67;;;5.07;;
60233;SDS011;49514;43.538;-5.708;2023-03-31T21:16:19;36.17;;;6.47;;
60233;SDS011;49514;43.538;-5.708;2023-03-31T21:18:47;31.85;;;6.03;;
60233;SDS011;49514;43.538;-5.708;2023-03-31T21:21:15;30.08;;;5.63;;
60233;SDS011;49514;43.538;-5.708;2023-03-31T21:23:44;34.67;;;5.83;;
60233;SDS011;49514;43.538;-5.708;2023-03-31T21:26:12;33.20;;;5.97;;
60233;SDS011;49514;43.538;-5.708;2023-03-31T21:28:40;31.90;;;5.30;;
60233;SDS011;49514;43.538;-5.708;2023-03-31T21:31:16;37.35;;;5.85;;
60233;SDS011;49514;43.538;-5.708;2023-03-31T21:33:44;36.37;;;5.53;;
60233;SDS011;49514;43.538;-5.708;2023-03-31T21:36:16;30.63;;;6.00;;
60233;SDS011;49514;43.538;-5.708;2023-03-31T21:38:46;33.17;;;5.55;;
60233;SDS011;49514;43.538;-5.708;2023-03-31T21:41:15;29.85;;;5.88;;
60233;SDS011;49514;43.538;-5.708;2023-03-31T21:43:44;27.65;;;5.53;;
60233;SDS011;49514;43.538;-5.708;2023-03-31T21:46:15;34.83;;;6.28;;
60233;SDS011;49514;43.538;-5.708;2023-03-31T21:48:46;33.78;;;5.43;;
60233;SDS011;49514;43.538;-5.708;2023-03-31T21:51:14;38.90;;;6.07;;
60233;SDS011;49514;43.538;-5.708;2023-03-31T21:53:42;41.13;;;6.82;;
60233;SDS011;49514;43.538;-5.708;2023-03-31T21:56:09;35.35;;;5.38;;
60233;SDS011;49514;43.538;-5.708;2023-03-31T21:58:36;34.40;;;6.15;;
60233;SDS011;49514;43.538;-5.708;2023-03-31T22:01:03;33.83;;;5.70;;
60233;SDS011;49514;43.538;-5.708;2023-03-31T22:03:31;35.47;;;6.80;;
60233;SDS011;49514;43.538;-5.708;2023-03-31T22:06:03;34.00;;;5.50;;
60233;SDS011;49514;43.538;-5.708;2023-03-31T22:08:32;32.27;;;6.03;;
60233;SDS011;49514;43.538;-5.708;2023-03-31T22:11:02;39.47;;;6.30;;
60233;SDS011;49514;43.538;-5.708;2023-03-31T22:13:30;33.22;;;6.03;;
60233;SDS011;49514;43.538;-5.708;2023-03-31T22:15:57;29.83;;;5.47;;
60233;SDS011;49514;43.538;-5.708;2023-03-31T22:18:27;31.17;;;5.75;;
60233;SDS011;49514;43.538;-5.708;2023-03-31T22:20:54;31.80;;;5.78;;
60233;SDS011;49514;43.538;-5.708;2023-03-31T22:23:21;34.20;;;6.30;;
60233;SDS011;49514;43.538;-5.708;2023-03-31T22:25:48;32.93;;;5.80;;
60233;SDS011;49514;43.538;-5.708;2023-03-31T22:28:16;41.57;;;6.87;;
60233;SDS011;49514;43.538;-5.708;2023-03-31T22:30:42;35.53;;;6.15;;
60233;SDS011;49514;43.538;-5.708;2023-03-31T22:33:12;55.97;;;10.98;;
60233;SDS011;49514;43.538;-5.708;2023-03-31T22:35:39;51.20;;;8.93;;
60233;SDS011;49514;43.538;-5.708;2023-03-31T22:38:06;57.83;;;9.85;;
60233;SDS011;49514;43.538;-5.708;2023-03-31T22:40:33;40.28;;;8.15;;
60233;SDS011;49514;43.538;-5.708;2023-03-31T22:43:00;50.63;;;8.90;;
60233;SDS011;49514;43.538;-5.708;2023-03-31T22:45:27;50.22;;;8.90;;
60233;SDS011;49514;43.538;-5.708;2023-03-31T22:47:54;44.97;;;9.00;;
60233;SDS011;49514;43.538;-5.708;2023-03-31T22:50:21;35.97;;;6.95;;
60233;SDS011;49514;43.538;-5.708;2023-03-31T22:52:49;39.80;;;7.80;;
60233;SDS011;49514;43.538;-5.708;2023-03-31T22:55:17;54.47;;;9.63;;
60233;SDS011;49514;43.538;-5.708;2023-03-31T22:57:44;37.22;;;7.10;;
60233;SDS011;49514;43.538;-5.708;2023-03-31T23:00:11;36.15;;;6.72;;
60233;SDS011;49514;43.538;-5.708;2023-03-31T23:02:39;35.23;;;7.17;;
60233;SDS011;49514;43.538;-5.708;2023-03-31T23:05:06;38.95;;;6.88;;
60233;SDS011;49514;43.538;-5.708;2023-03-31T23:07:33;32.10;;;6.40;;
60233;SDS011;49514;43.538;-5.708;2023-03-31T23:10:00;31.42;;;6.38;;
60233;SDS011;49514;43.538;-5.708;2023-03-31T23:12:27;32.13;;;6.78;;
60233;SDS011;49514;43.538;-5.708;2023-03-31T23:14:54;34.85;;;6.70;;
60233;SDS011;49514;43.538;-5.708;2023-03-31T23:17:20;26.25;;;5.80;;
60233;SDS011;49514;43.538;-5.708;2023-03-31T23:19:47;36.92;;;6.65;;
60233;SDS011;49514;43.538;-5.708;2023-03-31T23:22:14;32.27;;;6.90;;
60233;SDS011;49514;43.538;-5.708;2023-03-31T23:24:40;29.33;;;6.35;;
60233;SDS011;49514;43.538;-5.708;2023-03-31T23:27:07;32.20;;;6.57;;
60233;SDS011;49514;43.538;-5.708;2023-03-31T23:29:34;29.10;;;6.28;;
60233;SDS011;49514;43.538;-5.708;2023-03-31T23:32:02;31.98;;;6.40;;
60233;SDS011;49514;43.538;-5.708;2023-03-31T23:34:28;29.27;;;6.65;;
60233;SDS011;49514;43.538;-5.708;2023-03-31T23:36:55;30.48;;;6.65;;
60233;SDS011;49514;43.538;-5.708;2023-03-31T23:39:22;32.45;;;6.10;;
60233;SDS011;49514;43.538;-5.708;2023-03-31T23:41:49;32.23;;;6.40;;
60233;SDS011;49514;43.538;-5.708;2023-03-31T23:44:16;29.30;;;6.80;;
60233;SDS011;49514;43.538;-5.708;2023-03-31T23:46:44;33.08;;;6.50;;
60233;SDS011;49514;43.538;-5.708;2023-03-31T23:49:10;35.08;;;7.15;;
60233;SDS011;49514;43.538;-5.708;2023-03-31T23:51:38;29.90;;;6.47;;
60233;SDS011;49514;43.538;-5.708;2023-03-31T23:54:05;34.90;;;6.85;;
60233;SDS011;49514;43.538;-5.708;2023-03-31T23:56:32;26.52;;;5.70;;
60233;SDS011;49514;43.538;-5.708;2023-03-31T23:58:59;31.55;;;6.03;;
